Airfield :
LOGIN :

Register | Disclaimer

   EN    FR    IT 

 










Legend :    VFR   Marginal VFR   IFR   Intensive IFR   Very Intensive IFR
Visi :
Ceiling :
>= 8 km
>= 3000ft
5 to 8 km
1000 to 3000 ft
1500m to 5 km
500 to 1000 ft
800 to 1500m
200 to 500 ft
< 800m
< 200 ft
Symbols :   Thunderstorms  Fog  Heavy snow  Heavy precipitations  Wind > 20 kt
SIGMETs :     Misc.  Thunderstorms  Icing  Turbulence  Mountain Waves  Volcanic Ashes







- Airport Elevation : 2096 ft
- IATA code : AUR
- Download approach charts


LFLW - Aurillac

CURRENT METAR :
  • 181800Z AUTO 22003KT 9999 ///CB 22/13 Q1019

EXPIRED METARs :
  • 181730Z AUTO 20004KT CAVOK 23/13 Q1019
  • 181700Z AUTO 23006KT 9999 SCT052 25/13 Q1019 TEMPO FEW055CB
  • 181630Z AUTO 23007KT 9999 TS SCT052/// ///CB 25/13 Q1019 BECMG NSW
  • 181600Z AUTO 19008KT 9999 FEW052 26/13 Q1019 TEMPO FEW055CB
  • 181530Z AUTO 21009KT 170V240 9999 BKN056 BKN066 BKN076 26/13 Q1019 TEMPO FEW055CB

Expired Forecast.
No reported NOTAMs for that airfield.
1 SIGMET reported for the Bordeaux FIR (LFBB) :
 
Embedded thunderstorms
LFBB SIGMET 2 VALID 181620/181800 LFPW
LFBB BORDEAUX FIR/UIR EMBD TS OBS WI N4615 E00300 - N4445 E00245 - N4530 E00200 - N4615 E00300 TOP FL340 STNR NC=



MET'MAP, your aeronautical weather chart ! - Copyright ORBIFLY December 2007 - Disclaimer

ORBIFLY MET'MAP TEAM :

Programming & Development : Alexandra Zaïnal
Concept & Development : Baudouin d'Aumeries
Co-Development & Prog : Marc-Olivier Méhu
Technical & hardware support : Manuel Goepfert

Contact : metmap@orbifly.com




SOURCES & CREDITS :

   NOAA